sensor_id;sensor_type;location;lat;lon;timestamp;temperature;humidity
13115;DHT22;6623;52.120;8.660;2023-02-08T00:02:14;-0.30;77.50
13115;DHT22;6623;52.120;8.660;2023-02-08T00:04:39;-0.30;77.50
13115;DHT22;6623;52.120;8.660;2023-02-08T00:07:05;0.90;78.20
13115;DHT22;6623;52.120;8.660;2023-02-08T00:09:30;-0.30;77.60
13115;DHT22;6623;52.120;8.660;2023-02-08T00:11:56;-0.30;77.70
13115;DHT22;6623;52.120;8.660;2023-02-08T00:14:22;-0.30;77.70
13115;DHT22;6623;52.120;8.660;2023-02-08T00:16:47;-0.40;77.60
13115;DHT22;6623;52.120;8.660;2023-02-08T00:19:13;-0.40;77.60
13115;DHT22;6623;52.120;8.660;2023-02-08T00:21:38;-0.40;77.60
13115;DHT22;6623;52.120;8.660;2023-02-08T00:24:04;-0.30;77.70
13115;DHT22;6623;52.120;8.660;2023-02-08T00:26:29;-0.40;77.70
13115;DHT22;6623;52.120;8.660;2023-02-08T00:28:55;-0.40;77.70
13115;DHT22;6623;52.120;8.660;2023-02-08T00:31:20;-0.40;77.70
13115;DHT22;6623;52.120;8.660;2023-02-08T00:33:46;-0.40;77.70
13115;DHT22;6623;52.120;8.660;2023-02-08T00:36:11;-0.40;77.70
13115;DHT22;6623;52.120;8.660;2023-02-08T00:38:37;-0.40;77.70
13115;DHT22;6623;52.120;8.660;2023-02-08T00:41:03;-0.50;77.70
13115;DHT22;6623;52.120;8.660;2023-02-08T00:43:29;-0.40;77.80
13115;DHT22;6623;52.120;8.660;2023-02-08T00:45:55;-0.50;77.80
13115;DHT22;6623;52.120;8.660;2023-02-08T00:48:21;-0.50;77.80
13115;DHT22;6623;52.120;8.660;2023-02-08T00:51:16;-0.50;77.80
13115;DHT22;6623;52.120;8.660;2023-02-08T00:53:43;-0.50;78.00
13115;DHT22;6623;52.120;8.660;2023-02-08T00:56:10;-0.50;78.10
13115;DHT22;6623;52.120;8.660;2023-02-08T00:58:37;-0.50;78.10
13115;DHT22;6623;52.120;8.660;2023-02-08T01:01:03;-0.50;78.10
13115;DHT22;6623;52.120;8.660;2023-02-08T01:03:34;-0.50;78.10
13115;DHT22;6623;52.120;8.660;2023-02-08T01:06:07;-0.60;78.10
13115;DHT22;6623;52.120;8.660;2023-02-08T01:08:33;1.10;79.00
13115;DHT22;6623;52.120;8.660;2023-02-08T01:11:13;-0.60;78.10
13115;DHT22;6623;52.120;8.660;2023-02-08T01:13:40;-0.60;78.10
13115;DHT22;6623;52.120;8.660;2023-02-08T01:18:43;-0.60;78.20
13115;DHT22;6623;52.120;8.660;2023-02-08T01:21:17;-0.60;78.20
13115;DHT22;6623;52.120;8.660;2023-02-08T01:23:44;-0.60;78.20
13115;DHT22;6623;52.120;8.660;2023-02-08T01:26:13;-0.60;78.20
13115;DHT22;6623;52.120;8.660;2023-02-08T01:28:46;-0.70;78.20
13115;DHT22;6623;52.120;8.660;2023-02-08T01:31:15;-0.60;78.30
13115;DHT22;6623;52.120;8.660;2023-02-08T01:33:41;-0.70;78.30
13115;DHT22;6623;52.120;8.660;2023-02-08T01:36:10;-0.60;78.40
13115;DHT22;6623;52.120;8.660;2023-02-08T01:38:36;-0.70;78.30
13115;DHT22;6623;52.120;8.660;2023-02-08T01:41:04;-0.70;78.30
13115;DHT22;6623;52.120;8.660;2023-02-08T01:44:03;-0.70;78.30
13115;DHT22;6623;52.120;8.660;2023-02-08T01:46:21;-0.70;78.40
13115;DHT22;6623;52.120;8.660;2023-02-08T01:48:47;-0.70;78.40
13115;DHT22;6623;52.120;8.660;2023-02-08T01:51:18;-0.80;78.40
13115;DHT22;6623;52.120;8.660;2023-02-08T01:53:45;-0.80;78.40
13115;DHT22;6623;52.120;8.660;2023-02-08T01:56:19;-0.80;78.40
13115;DHT22;6623;52.120;8.660;2023-02-08T01:58:49;-0.80;78.40
13115;DHT22;6623;52.120;8.660;2023-02-08T02:01:16;-0.80;78.40
13115;DHT22;6623;52.120;8.660;2023-02-08T02:03:42;-0.80;78.40
13115;DHT22;6623;52.120;8.660;2023-02-08T02:06:23;-0.70;78.50
13115;DHT22;6623;52.120;8.660;2023-02-08T02:09:16;-0.80;78.50
13115;DHT22;6623;52.120;8.660;2023-02-08T02:11:43;-0.80;78.50
13115;DHT22;6623;52.120;8.660;2023-02-08T02:14:09;-0.80;78.50
13115;DHT22;6623;52.120;8.660;2023-02-08T02:16:35;-0.80;78.50
13115;DHT22;6623;52.120;8.660;2023-02-08T02:19:01;-0.80;78.50
13115;DHT22;6623;52.120;8.660;2023-02-08T02:21:49;-0.90;78.40
13115;DHT22;6623;52.120;8.660;2023-02-08T02:27:50;-0.80;78.50
13115;DHT22;6623;52.120;8.660;2023-02-08T02:36:16;-0.90;78.40
13115;DHT22;6623;52.120;8.660;2023-02-08T02:39:11;-0.90;78.40
13115;DHT22;6623;52.120;8.660;2023-02-08T02:50:09;-0.90;78.60
13115;DHT22;6623;52.120;8.660;2023-02-08T02:56:03;-0.90;78.60
13115;DHT22;6623;52.120;8.660;2023-02-08T02:58:31;-0.90;78.60
13115;DHT22;6623;52.120;8.660;2023-02-08T03:00:58;-0.90;78.60
13115;DHT22;6623;52.120;8.660;2023-02-08T03:03:26;-0.80;78.70
13115;DHT22;6623;52.120;8.660;2023-02-08T03:05:57;-0.60;78.70
13115;DHT22;6623;52.120;8.660;2023-02-08T03:11:28;-0.80;78.70
13115;DHT22;6623;52.120;8.660;2023-02-08T03:19:34;-0.80;78.60
13115;DHT22;6623;52.120;8.660;2023-02-08T03:22:22;-0.80;78.60
13115;DHT22;6623;52.120;8.660;2023-02-08T03:25:10;-0.80;78.60
13115;DHT22;6623;52.120;8.660;2023-02-08T03:27:57;-0.80;78.50
13115;DHT22;6623;52.120;8.660;2023-02-08T03:30:34;-0.80;78.50
13115;DHT22;6623;52.120;8.660;2023-02-08T03:33:15;-0.80;78.50
13115;DHT22;6623;52.120;8.660;2023-02-08T03:35:54;-0.80;78.50
13115;DHT22;6623;52.120;8.660;2023-02-08T03:38:32;-0.80;78.40
13115;DHT22;6623;52.120;8.660;2023-02-08T03:41:02;-0.80;78.40
13115;DHT22;6623;52.120;8.660;2023-02-08T03:43:49;-0.80;78.40
13115;DHT22;6623;52.120;8.660;2023-02-08T03:46:23;-0.80;78.40
13115;DHT22;6623;52.120;8.660;2023-02-08T03:49:01;-0.80;78.40
13115;DHT22;6623;52.120;8.660;2023-02-08T03:51:32;-0.80;78.40
13115;DHT22;6623;52.120;8.660;2023-02-08T03:54:02;-0.80;78.40
13115;DHT22;6623;52.120;8.660;2023-02-08T03:56:43;-0.80;78.40
13115;DHT22;6623;52.120;8.660;2023-02-08T03:59:26;-0.80;78.40
13115;DHT22;6623;52.120;8.660;2023-02-08T04:01:58;-0.80;78.40
13115;DHT22;6623;52.120;8.660;2023-02-08T04:04:27;-0.90;78.30
13115;DHT22;6623;52.120;8.660;2023-02-08T04:06:56;-0.90;78.20
13115;DHT22;6623;52.120;8.660;2023-02-08T04:09:22;-0.90;78.20
13115;DHT22;6623;52.120;8.660;2023-02-08T04:11:47;-0.90;78.10
13115;DHT22;6623;52.120;8.660;2023-02-08T04:14:13;-0.90;78.10
13115;DHT22;6623;52.120;8.660;2023-02-08T04:16:38;-0.90;78.10
13115;DHT22;6623;52.120;8.660;2023-02-08T04:19:04;-0.90;78.10
13115;DHT22;6623;52.120;8.660;2023-02-08T04:21:29;-0.90;78.10
13115;DHT22;6623;52.120;8.660;2023-02-08T04:23:58;-0.90;78.10
13115;DHT22;6623;52.120;8.660;2023-02-08T04:26:23;-0.90;78.10
13115;DHT22;6623;52.120;8.660;2023-02-08T04:28:49;-0.90;78.10
13115;DHT22;6623;52.120;8.660;2023-02-08T04:31:14;-1.00;78.00
13115;DHT22;6623;52.120;8.660;2023-02-08T04:33:40;-1.00;78.00
13115;DHT22;6623;52.120;8.660;2023-02-08T04:36:06;-1.00;78.00
13115;DHT22;6623;52.120;8.660;2023-02-08T04:38:31;-1.00;78.10
13115;DHT22;6623;52.120;8.660;2023-02-08T04:40:57;-1.20;78.00
13115;DHT22;6623;52.120;8.660;2023-02-08T04:43:22;-1.00;78.10
13115;DHT22;6623;52.120;8.660;2023-02-08T04:45:51;-1.10;78.00
13115;DHT22;6623;52.120;8.660;2023-02-08T04:48:20;-1.10;78.00
13115;DHT22;6623;52.120;8.660;2023-02-08T04:50:45;-1.10;78.00
13115;DHT22;6623;52.120;8.660;2023-02-08T04:53:11;-1.20;77.90
13115;DHT22;6623;52.120;8.660;2023-02-08T04:55:37;-1.20;77.90
13115;DHT22;6623;52.120;8.660;2023-02-08T04:58:03;-1.20;78.00
13115;DHT22;6623;52.120;8.660;2023-02-08T05:00:28;-1.20;78.10
13115;DHT22;6623;52.120;8.660;2023-02-08T05:02:55;-1.30;78.80
13115;DHT22;6623;52.120;8.660;2023-02-08T05:05:21;-1.30;78.10
13115;DHT22;6623;52.120;8.660;2023-02-08T05:07:47;-1.30;78.20
13115;DHT22;6623;52.120;8.660;2023-02-08T05:10:13;-1.30;78.20
13115;DHT22;6623;52.120;8.660;2023-02-08T05:12:38;-1.10;78.30
13115;DHT22;6623;52.120;8.660;2023-02-08T05:15:04;-1.30;78.20
13115;DHT22;6623;52.120;8.660;2023-02-08T05:17:30;-1.30;78.30
13115;DHT22;6623;52.120;8.660;2023-02-08T05:19:55;-1.30;78.40
13115;DHT22;6623;52.120;8.660;2023-02-08T05:22:21;-1.30;78.50
13115;DHT22;6623;52.120;8.660;2023-02-08T05:24:46;-1.40;78.50
13115;DHT22;6623;52.120;8.660;2023-02-08T05:27:12;-1.40;78.60
13115;DHT22;6623;52.120;8.660;2023-02-08T05:29:37;-1.40;78.60
13115;DHT22;6623;52.120;8.660;2023-02-08T05:32:03;-1.50;78.50
13115;DHT22;6623;52.120;8.660;2023-02-08T05:34:38;-1.40;78.60
13115;DHT22;6623;52.120;8.660;2023-02-08T05:37:03;-1.50;78.50
13115;DHT22;6623;52.120;8.660;2023-02-08T05:39:35;-1.50;78.50
13115;DHT22;6623;52.120;8.660;2023-02-08T05:42:01;-1.50;78.40
13115;DHT22;6623;52.120;8.660;2023-02-08T05:44:26;-1.50;78.40
13115;DHT22;6623;52.120;8.660;2023-02-08T05:46:52;-1.50;79.00
13115;DHT22;6623;52.120;8.660;2023-02-08T05:49:17;-1.50;78.30
13115;DHT22;6623;52.120;8.660;2023-02-08T05:51:43;-1.50;78.30
13115;DHT22;6623;52.120;8.660;2023-02-08T05:54:08;-1.50;78.30
13115;DHT22;6623;52.120;8.660;2023-02-08T05:56:35;-1.40;78.40
13115;DHT22;6623;52.120;8.660;2023-02-08T05:59:00;-1.50;78.30
13115;DHT22;6623;52.120;8.660;2023-02-08T06:01:26;-1.50;78.30
13115;DHT22;6623;52.120;8.660;2023-02-08T06:03:52;-1.50;78.30
13115;DHT22;6623;52.120;8.660;2023-02-08T06:06:18;-1.50;78.30
13115;DHT22;6623;52.120;8.660;2023-02-08T06:08:44;-1.60;78.30
13115;DHT22;6623;52.120;8.660;2023-02-08T06:11:10;-1.60;78.40
13115;DHT22;6623;52.120;8.660;2023-02-08T06:13:35;-1.60;78.40
13115;DHT22;6623;52.120;8.660;2023-02-08T06:16:01;-1.60;78.30
13115;DHT22;6623;52.120;8.660;2023-02-08T06:18:26;-1.60;78.30
13115;DHT22;6623;52.120;8.660;2023-02-08T06:20:52;-1.60;78.40
13115;DHT22;6623;52.120;8.660;2023-02-08T06:23:19;-1.50;78.40
13115;DHT22;6623;52.120;8.660;2023-02-08T06:25:45;-1.60;78.30
13115;DHT22;6623;52.120;8.660;2023-02-08T06:28:10;-1.60;78.30
13115;DHT22;6623;52.120;8.660;2023-02-08T06:30:37;-1.60;78.40
13115;DHT22;6623;52.120;8.660;2023-02-08T06:33:03;-1.60;78.40
13115;DHT22;6623;52.120;8.660;2023-02-08T06:35:29;-1.70;78.40
13115;DHT22;6623;52.120;8.660;2023-02-08T06:37:54;-1.60;78.70
13115;DHT22;6623;52.120;8.660;2023-02-08T06:40:20;-1.60;78.40
13115;DHT22;6623;52.120;8.660;2023-02-08T06:42:46;-1.60;78.40
13115;DHT22;6623;52.120;8.660;2023-02-08T06:45:12;-1.60;78.40
13115;DHT22;6623;52.120;8.660;2023-02-08T06:47:38;-1.60;78.40
13115;DHT22;6623;52.120;8.660;2023-02-08T06:50:04;-1.60;78.50
13115;DHT22;6623;52.120;8.660;2023-02-08T06:52:30;-1.70;78.50
13115;DHT22;6623;52.120;8.660;2023-02-08T06:54:55;-1.60;78.50
13115;DHT22;6623;52.120;8.660;2023-02-08T06:57:21;-1.60;78.50
13115;DHT22;6623;52.120;8.660;2023-02-08T06:59:46;-1.60;78.60
13115;DHT22;6623;52.120;8.660;2023-02-08T07:02:13;-1.60;78.60
13115;DHT22;6623;52.120;8.660;2023-02-08T07:04:51;-1.60;78.60
13115;DHT22;6623;52.120;8.660;2023-02-08T07:07:17;-1.60;78.70
13115;DHT22;6623;52.120;8.660;2023-02-08T07:09:43;-1.60;78.70
13115;DHT22;6623;52.120;8.660;2023-02-08T07:12:09;-1.60;78.80
13115;DHT22;6623;52.120;8.660;2023-02-08T07:14:40;-1.60;78.80
13115;DHT22;6623;52.120;8.660;2023-02-08T07:17:06;-1.60;78.80
13115;DHT22;6623;52.120;8.660;2023-02-08T07:19:32;-1.60;78.90
13115;DHT22;6623;52.120;8.660;2023-02-08T07:21:58;-1.60;78.90
13115;DHT22;6623;52.120;8.660;2023-02-08T07:24:29;-1.60;79.00
13115;DHT22;6623;52.120;8.660;2023-02-08T07:26:55;-1.50;79.10
13115;DHT22;6623;52.120;8.660;2023-02-08T07:29:20;-1.60;79.20
13115;DHT22;6623;52.120;8.660;2023-02-08T07:31:46;-1.60;79.20
13115;DHT22;6623;52.120;8.660;2023-02-08T07:34:11;-1.60;79.30
13115;DHT22;6623;52.120;8.660;2023-02-08T07:36:41;-1.60;79.40
13115;DHT22;6623;52.120;8.660;2023-02-08T07:39:06;-1.60;79.40
13115;DHT22;6623;52.120;8.660;2023-02-08T07:41:32;-1.60;79.50
13115;DHT22;6623;52.120;8.660;2023-02-08T07:43:59;-1.50;79.70
13115;DHT22;6623;52.120;8.660;2023-02-08T07:46:24;-1.50;79.70
13115;DHT22;6623;52.120;8.660;2023-02-08T07:48:56;-1.50;79.70
13115;DHT22;6623;52.120;8.660;2023-02-08T07:51:22;-1.50;79.70
13115;DHT22;6623;52.120;8.660;2023-02-08T07:53:48;-1.50;79.70
13115;DHT22;6623;52.120;8.660;2023-02-08T07:56:16;-1.50;79.80
13115;DHT22;6623;52.120;8.660;2023-02-08T07:58:43;-1.60;79.90
13115;DHT22;6623;52.120;8.660;2023-02-08T08:01:09;-1.60;80.00
13115;DHT22;6623;52.120;8.660;2023-02-08T08:03:34;-1.50;80.10
13115;DHT22;6623;52.120;8.660;2023-02-08T08:06:00;-1.50;80.20
13115;DHT22;6623;52.120;8.660;2023-02-08T08:08:25;-1.50;80.30
13115;DHT22;6623;52.120;8.660;2023-02-08T08:10:51;-1.50;80.30
13115;DHT22;6623;52.120;8.660;2023-02-08T08:13:17;-1.50;80.30
13115;DHT22;6623;52.120;8.660;2023-02-08T08:15:42;-1.40;80.50
13115;DHT22;6623;52.120;8.660;2023-02-08T08:18:08;-1.40;80.50
13115;DHT22;6623;52.120;8.660;2023-02-08T08:20:34;-1.40;80.60
13115;DHT22;6623;52.120;8.660;2023-02-08T08:23:00;-1.30;80.70
13115;DHT22;6623;52.120;8.660;2023-02-08T08:25:26;-1.30;80.70
13115;DHT22;6623;52.120;8.660;2023-02-08T08:27:52;-1.20;80.80
13115;DHT22;6623;52.120;8.660;2023-02-08T08:30:17;-1.20;80.90
13115;DHT22;6623;52.120;8.660;2023-02-08T08:32:43;-1.20;80.90
13115;DHT22;6623;52.120;8.660;2023-02-08T08:35:09;-1.10;81.10
13115;DHT22;6623;52.120;8.660;2023-02-08T08:37:35;-1.20;81.00
13115;DHT22;6623;52.120;8.660;2023-02-08T08:40:02;-1.10;81.10
13115;DHT22;6623;52.120;8.660;2023-02-08T08:42:27;-1.00;81.30
13115;DHT22;6623;52.120;8.660;2023-02-08T08:44:53;-0.90;81.40
13115;DHT22;6623;52.120;8.660;2023-02-08T08:47:19;-0.90;81.50
13115;DHT22;6623;52.120;8.660;2023-02-08T08:49:45;-0.90;81.50
13115;DHT22;6623;52.120;8.660;2023-02-08T08:52:11;-0.90;81.60
13115;DHT22;6623;52.120;8.660;2023-02-08T08:54:37;-0.80;81.80
13115;DHT22;6623;52.120;8.660;2023-02-08T08:57:03;-0.80;81.80
13115;DHT22;6623;52.120;8.660;2023-02-08T08:59:29;-0.70;81.90
13115;DHT22;6623;52.120;8.660;2023-02-08T09:01:55;-0.70;81.90
13115;DHT22;6623;52.120;8.660;2023-02-08T09:04:20;-0.50;81.90
13115;DHT22;6623;52.120;8.660;2023-02-08T09:06:49;-0.50;81.80
13115;DHT22;6623;52.120;8.660;2023-02-08T09:09:15;-0.50;81.80
13115;DHT22;6623;52.120;8.660;2023-02-08T09:11:41;-0.40;81.70
13115;DHT22;6623;52.120;8.660;2023-02-08T09:14:06;-0.30;81.70
13115;DHT22;6623;52.120;8.660;2023-02-08T09:16:32;-0.30;81.60
13115;DHT22;6623;52.120;8.660;2023-02-08T09:19:06;-0.30;81.50
13115;DHT22;6623;52.120;8.660;2023-02-08T09:21:32;-0.20;81.40
13115;DHT22;6623;52.120;8.660;2023-02-08T09:23:59;-0.10;81.40
13115;DHT22;6623;52.120;8.660;2023-02-08T09:26:24;-0.10;81.30
13115;DHT22;6623;52.120;8.660;2023-02-08T09:28:51;0.00;81.20
13115;DHT22;6623;52.120;8.660;2023-02-08T09:31:25;0.00;81.00
13115;DHT22;6623;52.120;8.660;2023-02-08T09:33:53;0.10;80.90
13115;DHT22;6623;52.120;8.660;2023-02-08T09:36:20;0.10;80.70
13115;DHT22;6623;52.120;8.660;2023-02-08T09:38:47;0.20;80.70
13115;DHT22;6623;52.120;8.660;2023-02-08T09:44:19;0.20;80.40
13115;DHT22;6623;52.120;8.660;2023-02-08T09:47:52;0.30;80.30
13115;DHT22;6623;52.120;8.660;2023-02-08T09:55:15;0.70;80.00
13115;DHT22;6623;52.120;8.660;2023-02-08T09:57:44;0.50;80.20
13115;DHT22;6623;52.120;8.660;2023-02-08T10:00:15;0.60;79.50
13115;DHT22;6623;52.120;8.660;2023-02-08T10:02:43;0.60;79.40
13115;DHT22;6623;52.120;8.660;2023-02-08T10:05:11;0.60;79.10
13115;DHT22;6623;52.120;8.660;2023-02-08T10:07:39;0.70;79.00
13115;DHT22;6623;52.120;8.660;2023-02-08T10:10:11;0.70;78.90
13115;DHT22;6623;52.120;8.660;2023-02-08T10:15:40;0.80;78.60
13115;DHT22;6623;52.120;8.660;2023-02-08T10:21:04;0.90;78.40
13115;DHT22;6623;52.120;8.660;2023-02-08T10:26:35;1.00;78.10
13115;DHT22;6623;52.120;8.660;2023-02-08T10:29:32;1.00;77.90
13115;DHT22;6623;52.120;8.660;2023-02-08T10:34:53;1.10;77.70
13115;DHT22;6623;52.120;8.660;2023-02-08T10:37:28;1.10;77.60
13115;DHT22;6623;52.120;8.660;2023-02-08T10:39:56;1.20;77.40
13115;DHT22;6623;52.120;8.660;2023-02-08T10:42:26;1.20;77.20
13115;DHT22;6623;52.120;8.660;2023-02-08T10:45:21;1.30;77.10
13115;DHT22;6623;52.120;8.660;2023-02-08T10:47:51;1.60;77.00
13115;DHT22;6623;52.120;8.660;2023-02-08T10:50:42;1.40;76.90
13115;DHT22;6623;52.120;8.660;2023-02-08T10:53:16;1.40;76.70
13115;DHT22;6623;52.120;8.660;2023-02-08T10:55:44;1.50;76.70
13115;DHT22;6623;52.120;8.660;2023-02-08T10:58:15;1.50;76.60
13115;DHT22;6623;52.120;8.660;2023-02-08T11:00:42;1.60;76.40
13115;DHT22;6623;52.120;8.660;2023-02-08T11:03:21;1.60;76.40
13115;DHT22;6623;52.120;8.660;2023-02-08T11:05:48;1.70;76.20
13115;DHT22;6623;52.120;8.660;2023-02-08T11:08:19;1.70;76.10
13115;DHT22;6623;52.120;8.660;2023-02-08T11:11:06;1.80;75.80
13115;DHT22;6623;52.120;8.660;2023-02-08T11:13:44;1.80;75.60
13115;DHT22;6623;52.120;8.660;2023-02-08T11:16:12;1.80;75.40
13115;DHT22;6623;52.120;8.660;2023-02-08T11:21:28;1.90;75.00
13115;DHT22;6623;52.120;8.660;2023-02-08T11:23:57;2.00;74.90
13115;DHT22;6623;52.120;8.660;2023-02-08T11:26:33;2.00;74.80
13115;DHT22;6623;52.120;8.660;2023-02-08T11:29:02;2.00;74.60
13115;DHT22;6623;52.120;8.660;2023-02-08T11:31:28;2.10;74.50
13115;DHT22;6623;52.120;8.660;2023-02-08T11:34:11;2.10;74.40
13115;DHT22;6623;52.120;8.660;2023-02-08T11:36:43;2.10;74.10
13115;DHT22;6623;52.120;8.660;2023-02-08T11:39:30;2.20;74.10
13115;DHT22;6623;52.120;8.660;2023-02-08T11:41:59;2.20;73.90
13115;DHT22;6623;52.120;8.660;2023-02-08T11:44:29;2.30;73.80
13115;DHT22;6623;52.120;8.660;2023-02-08T11:47:00;2.30;73.60
13115;DHT22;6623;52.120;8.660;2023-02-08T11:49:39;2.30;73.30
13115;DHT22;6623;52.120;8.660;2023-02-08T11:52:17;2.40;73.20
13115;DHT22;6623;52.120;8.660;2023-02-08T11:54:44;2.40;73.00
13115;DHT22;6623;52.120;8.660;2023-02-08T11:57:36;2.50;72.90
13115;DHT22;6623;52.120;8.660;2023-02-08T12:00:27;2.50;72.40
13115;DHT22;6623;52.120;8.660;2023-02-08T12:22:15;2.90;70.70
13115;DHT22;6623;52.120;8.660;2023-02-08T12:30:35;3.00;70.00
13115;DHT22;6623;52.120;8.660;2023-02-08T12:50:46;3.20;69.20
13115;DHT22;6623;52.120;8.660;2023-02-08T12:56:24;3.30;69.00
13115;DHT22;6623;52.120;8.660;2023-02-08T12:58:52;3.40;69.00
13115;DHT22;6623;52.120;8.660;2023-02-08T13:01:28;3.40;68.90
13115;DHT22;6623;52.120;8.660;2023-02-08T13:04:06;3.40;68.70
13115;DHT22;6623;52.120;8.660;2023-02-08T13:06:42;3.40;68.40
13115;DHT22;6623;52.120;8.660;2023-02-08T13:15:21;3.60;68.10
13115;DHT22;6623;52.120;8.660;2023-02-08T13:17:50;3.60;68.00
13115;DHT22;6623;52.120;8.660;2023-02-08T13:22:46;3.60;67.60
13115;DHT22;6623;52.120;8.660;2023-02-08T13:25:25;3.60;67.40
13115;DHT22;6623;52.120;8.660;2023-02-08T13:28:00;3.70;67.10
13115;DHT22;6623;52.120;8.660;2023-02-08T13:30:25;3.70;67.00
13115;DHT22;6623;52.120;8.660;2023-02-08T13:32:52;3.70;66.90
13115;DHT22;6623;52.120;8.660;2023-02-08T13:35:24;3.70;66.50
13115;DHT22;6623;52.120;8.660;2023-02-08T13:38:06;3.70;66.30
13115;DHT22;6623;52.120;8.660;2023-02-08T13:40:41;3.80;66.00
13115;DHT22;6623;52.120;8.660;2023-02-08T13:43:24;3.80;65.80
13115;DHT22;6623;52.120;8.660;2023-02-08T13:45:54;3.80;65.40
13115;DHT22;6623;52.120;8.660;2023-02-08T13:48:23;3.80;65.30
13115;DHT22;6623;52.120;8.660;2023-02-08T13:50:53;3.80;65.20
13115;DHT22;6623;52.120;8.660;2023-02-08T13:56:08;3.80;65.40
13115;DHT22;6623;52.120;8.660;2023-02-08T14:03:34;3.90;64.30
13115;DHT22;6623;52.120;8.660;2023-02-08T14:09:22;3.90;63.80
13115;DHT22;6623;52.120;8.660;2023-02-08T14:12:04;3.90;63.40
13115;DHT22;6623;52.120;8.660;2023-02-08T14:14:37;3.90;63.40
13115;DHT22;6623;52.120;8.660;2023-02-08T14:19:33;3.90;63.00
13115;DHT22;6623;52.120;8.660;2023-02-08T14:24:36;4.00;62.70
13115;DHT22;6623;52.120;8.660;2023-02-08T14:29:33;4.00;62.30
13115;DHT22;6623;52.120;8.660;2023-02-08T14:31:59;4.00;62.20
13115;DHT22;6623;52.120;8.660;2023-02-08T14:34:33;4.00;62.00
13115;DHT22;6623;52.120;8.660;2023-02-08T14:39:43;4.00;61.70
13115;DHT22;6623;52.120;8.660;2023-02-08T14:42:09;4.00;61.70
13115;DHT22;6623;52.120;8.660;2023-02-08T14:49:40;4.00;60.90
13115;DHT22;6623;52.120;8.660;2023-02-08T14:52:12;4.10;60.70
13115;DHT22;6623;52.120;8.660;2023-02-08T14:54:52;4.10;60.70
13115;DHT22;6623;52.120;8.660;2023-02-08T14:57:28;4.00;60.50
13115;DHT22;6623;52.120;8.660;2023-02-08T14:59:59;4.00;60.40
13115;DHT22;6623;52.120;8.660;2023-02-08T15:02:27;4.10;60.20
13115;DHT22;6623;52.120;8.660;2023-02-08T15:04:57;4.10;60.10
13115;DHT22;6623;52.120;8.660;2023-02-08T15:07:38;4.10;60.00
13115;DHT22;6623;52.120;8.660;2023-02-08T15:10:12;4.00;59.80
13115;DHT22;6623;52.120;8.660;2023-02-08T15:12:39;4.10;59.80
13115;DHT22;6623;52.120;8.660;2023-02-08T15:15:06;4.00;59.60
13115;DHT22;6623;52.120;8.660;2023-02-08T15:17:46;4.10;59.60
13115;DHT22;6623;52.120;8.660;2023-02-08T15:20:22;4.00;59.30
13115;DHT22;6623;52.120;8.660;2023-02-08T15:22:48;4.00;59.10
13115;DHT22;6623;52.120;8.660;2023-02-08T15:25:25;4.00;59.20
13115;DHT22;6623;52.120;8.660;2023-02-08T15:28:03;4.00;59.20
13115;DHT22;6623;52.120;8.660;2023-02-08T15:30:36;4.00;59.10
13115;DHT22;6623;52.120;8.660;2023-02-08T15:33:13;4.00;59.10
13115;DHT22;6623;52.120;8.660;2023-02-08T15:35:42;4.00;59.10
13115;DHT22;6623;52.120;8.660;2023-02-08T15:38:19;4.00;59.10
13115;DHT22;6623;52.120;8.660;2023-02-08T15:43:35;3.90;58.90
13115;DHT22;6623;52.120;8.660;2023-02-08T15:46:15;3.90;59.60
13115;DHT22;6623;52.120;8.660;2023-02-08T15:48:44;3.90;59.00
13115;DHT22;6623;52.120;8.660;2023-02-08T15:51:11;3.90;59.00
13115;DHT22;6623;52.120;8.660;2023-02-08T15:53:44;3.90;58.90
13115;DHT22;6623;52.120;8.660;2023-02-08T15:56:16;3.90;58.90
13115;DHT22;6623;52.120;8.660;2023-02-08T15:58:46;3.80;58.80
13115;DHT22;6623;52.120;8.660;2023-02-08T16:01:18;3.80;58.80
13115;DHT22;6623;52.120;8.660;2023-02-08T16:03:53;3.70;58.60
13115;DHT22;6623;52.120;8.660;2023-02-08T16:06:23;3.80;58.60
13115;DHT22;6623;52.120;8.660;2023-02-08T16:08:50;3.70;58.60
13115;DHT22;6623;52.120;8.660;2023-02-08T16:11:28;3.70;58.50
13115;DHT22;6623;52.120;8.660;2023-02-08T16:13:56;3.70;58.50
13115;DHT22;6623;52.120;8.660;2023-02-08T16:19:00;3.60;58.50
13115;DHT22;6623;52.120;8.660;2023-02-08T16:21:39;3.60;58.50
13115;DHT22;6623;52.120;8.660;2023-02-08T16:26:44;3.50;58.50
13115;DHT22;6623;52.120;8.660;2023-02-08T16:29:28;3.50;58.50
13115;DHT22;6623;52.120;8.660;2023-02-08T16:34:43;3.40;58.50
13115;DHT22;6623;52.120;8.660;2023-02-08T16:37:29;3.40;58.60
13115;DHT22;6623;52.120;8.660;2023-02-08T16:39:57;3.40;58.60
13115;DHT22;6623;52.120;8.660;2023-02-08T16:42:31;3.30;58.60
13115;DHT22;6623;52.120;8.660;2023-02-08T16:50:22;3.20;58.60
13115;DHT22;6623;52.120;8.660;2023-02-08T16:52:59;3.20;58.60
13115;DHT22;6623;52.120;8.660;2023-02-08T16:55:29;3.20;58.60
13115;DHT22;6623;52.120;8.660;2023-02-08T16:57:56;3.10;58.60
13115;DHT22;6623;52.120;8.660;2023-02-08T17:00:33;3.10;58.70
13115;DHT22;6623;52.120;8.660;2023-02-08T17:02:59;3.10;58.80
13115;DHT22;6623;52.120;8.660;2023-02-08T17:05:30;3.10;58.90
13115;DHT22;6623;52.120;8.660;2023-02-08T17:07:57;3.10;58.90
13115;DHT22;6623;52.120;8.660;2023-02-08T17:10:26;3.00;58.90
13115;DHT22;6623;52.120;8.660;2023-02-08T17:12:52;3.00;59.60
13115;DHT22;6623;52.120;8.660;2023-02-08T17:15:18;3.00;59.10
13115;DHT22;6623;52.120;8.660;2023-02-08T17:17:46;2.90;59.10
13115;DHT22;6623;52.120;8.660;2023-02-08T17:20:26;2.90;59.20
13115;DHT22;6623;52.120;8.660;2023-02-08T17:22:53;2.90;59.30
13115;DHT22;6623;52.120;8.660;2023-02-08T17:25:20;2.90;59.40
13115;DHT22;6623;52.120;8.660;2023-02-08T17:30:24;2.80;59.40
13115;DHT22;6623;52.120;8.660;2023-02-08T17:32:50;2.80;59.50
13115;DHT22;6623;52.120;8.660;2023-02-08T17:35:16;2.80;59.50
13115;DHT22;6623;52.120;8.660;2023-02-08T17:37:46;2.80;59.60
13115;DHT22;6623;52.120;8.660;2023-02-08T17:40:16;2.70;59.50
13115;DHT22;6623;52.120;8.660;2023-02-08T17:42:42;2.70;59.60
13115;DHT22;6623;52.120;8.660;2023-02-08T17:45:09;2.70;59.70
13115;DHT22;6623;52.120;8.660;2023-02-08T17:47:35;2.60;59.70
13115;DHT22;6623;52.120;8.660;2023-02-08T17:50:09;2.60;59.80
13115;DHT22;6623;52.120;8.660;2023-02-08T17:52:36;2.60;59.80
13115;DHT22;6623;52.120;8.660;2023-02-08T17:55:04;2.50;59.80
13115;DHT22;6623;52.120;8.660;2023-02-08T17:57:32;2.50;59.90
13115;DHT22;6623;52.120;8.660;2023-02-08T17:59:58;2.50;60.00
13115;DHT22;6623;52.120;8.660;2023-02-08T18:02:23;2.40;60.10
13115;DHT22;6623;52.120;8.660;2023-02-08T18:04:49;2.50;60.20
13115;DHT22;6623;52.120;8.660;2023-02-08T18:07:14;2.50;60.30
13115;DHT22;6623;52.120;8.660;2023-02-08T18:09:40;2.50;60.40
13115;DHT22;6623;52.120;8.660;2023-02-08T18:12:05;2.40;60.40
13115;DHT22;6623;52.120;8.660;2023-02-08T18:14:31;2.40;60.50
13115;DHT22;6623;52.120;8.660;2023-02-08T18:16:57;2.40;60.60
13115;DHT22;6623;52.120;8.660;2023-02-08T18:19:22;2.40;60.70
13115;DHT22;6623;52.120;8.660;2023-02-08T18:21:48;2.50;60.80
13115;DHT22;6623;52.120;8.660;2023-02-08T18:24:13;2.50;60.90
13115;DHT22;6623;52.120;8.660;2023-02-08T18:26:39;2.30;60.80
13115;DHT22;6623;52.120;8.660;2023-02-08T18:29:05;2.30;60.90
13115;DHT22;6623;52.120;8.660;2023-02-08T18:31:31;2.30;61.00
13115;DHT22;6623;52.120;8.660;2023-02-08T18:33:57;2.30;61.00
13115;DHT22;6623;52.120;8.660;2023-02-08T18:36:23;2.30;61.10
13115;DHT22;6623;52.120;8.660;2023-02-08T18:38:51;2.30;61.20
13115;DHT22;6623;52.120;8.660;2023-02-08T18:41:20;2.20;61.20
13115;DHT22;6623;52.120;8.660;2023-02-08T18:43:47;2.20;61.20